Time;durP1;ratioP1;P1;durP2;ratioP2;P2;SDS_P1;SDS_P2;PMS_P1;PMS_P2;Temp;Humidity;BMP_temperature;BMP_pressure;BME280_temperature;BME280_humidity;BME280_pressure;Samples;Min_cycle;Max_cycle;Signal;HPM_P1;HPM_P2
2022/08/25 00:01:43;;;;;;;4.03;3.63;;;25.10;53.90;;;;;;5086386;28;20437;-70
2022/08/25 00:04:12;;;;;;;4.43;2.90;;;25.10;54.00;;;;;;5076996;28;20433;-69
2022/08/25 00:06:39;;;;;;;3.73;3.47;;;25.10;54.00;;;;;;5076901;28;20798;-69
2022/08/25 00:09:05;;;;;;;3.47;3.17;;;25.10;54.00;;;;;;5051945;28;21001;-69
2022/08/25 00:11:33;;;;;;;3.67;3.37;;;25.00;54.00;;;;;;5056597;28;20461;-69
2022/08/25 00:14:08;;;;;;;4.80;3.93;;;24.90;54.00;;;;;;5064606;28;20511;-69
2022/08/25 00:16:34;;;;;;;6.50;4.07;;;24.90;54.30;;;;;;5064210;28;20452;-69
2022/08/25 00:19:06;;;;;;;8.53;3.60;;;24.80;54.20;;;;;;5067615;28;20479;-69
2022/08/25 00:21:32;;;;;;;4.13;3.83;;;24.80;54.30;;;;;;5068707;28;20214;-69
2022/08/25 00:24:01;;;;;;;3.57;3.37;;;24.80;54.30;;;;;;5070030;28;20965;-69
2022/08/25 00:26:27;;;;;;;3.40;3.10;;;24.80;54.40;;;;;;5070124;28;20453;-69
2022/08/25 00:28:53;;;;;;;4.47;3.70;;;24.80;54.40;;;;;;5069889;28;20482;-68
2022/08/25 00:31:22;;;;;;;4.10;3.23;;;24.60;54.40;;;;;;5066988;28;20450;-68
2022/08/25 00:33:50;;;;;;;3.70;3.40;;;24.60;54.40;;;;;;5059047;28;20466;-69
2022/08/25 00:36:17;;;;;;;3.50;3.20;;;24.60;54.40;;;;;;5076803;28;20546;-69
2022/08/25 00:38:45;;;;;;;5.00;3.57;;;24.60;54.40;;;;;;5068121;28;20999;-70
2022/08/25 00:41:16;;;;;;;3.20;2.90;;;24.60;54.30;;;;;;5071608;28;20542;-69
2022/08/25 00:43:50;;;;;;;3.70;3.50;;;24.60;54.40;;;;;;5068075;28;20464;-70
2022/08/25 00:46:26;;;;;;;4.33;3.23;;;24.60;54.40;;;;;;5068969;28;20545;-69
2022/08/25 00:49:05;;;;;;;3.87;3.50;;;24.50;54.40;;;;;;5068574;28;20960;-69
2022/08/25 00:51:45;;;;;;;3.33;3.03;;;24.50;54.50;;;;;;5065047;28;20457;-69
2022/08/25 00:54:18;;;;;;;3.60;3.30;;;24.50;54.40;;;;;;5064034;28;20959;-69
2022/08/25 00:56:44;;;;;;;5.00;3.07;;;24.50;54.40;;;;;;5065590;28;20445;-69
2022/08/25 00:59:10;;;;;;;3.00;2.80;;;24.50;54.50;;;;;;5086663;28;20532;-70
2022/08/25 01:01:36;;;;;;;5.37;3.40;;;24.40;54.50;;;;;;5067477;28;20974;-69
2022/08/25 01:04:02;;;;;;;4.23;3.53;;;24.40;54.50;;;;;;5067684;28;20540;-69
2022/08/25 01:06:32;;;;;;;4.20;3.80;;;24.40;54.50;;;;;;5070104;28;20218;-69
2022/08/25 01:08:58;;;;;;;4.00;3.60;;;24.30;54.50;;;;;;5072150;28;20210;-69
2022/08/25 01:11:24;;;;;;;3.90;3.60;;;24.30;54.60;;;;;;5054579;28;20484;-69
2022/08/25 01:13:55;;;;;;;3.57;3.37;;;24.30;54.60;;;;;;5066853;28;20305;-69
2022/08/25 01:16:21;;;;;;;3.80;3.50;;;24.30;54.70;;;;;;5068284;28;20685;-70
2022/08/25 01:18:55;;;;;;;5.50;3.30;;;24.20;54.70;;;;;;5072031;28;20583;-69
2022/08/25 01:21:23;;;;;;;4.20;3.03;;;24.20;54.70;;;;;;5066611;28;20297;-68
2022/08/25 01:23:51;;;;;;;5.00;3.27;;;24.20;54.70;;;;;;5069042;27;20508;-69
2022/08/25 01:26:26;;;;;;;3.47;3.20;;;24.10;54.70;;;;;;5065136;28;20458;-69
2022/08/25 01:31:38;;;;;;;3.90;3.17;;;24.10;54.80;;;;;;5084958;27;20476;-69
2022/08/25 01:34:05;;;;;;;4.00;3.70;;;23.80;55.00;;;;;;5058475;28;20453;-69
2022/08/25 01:36:33;;;;;;;3.47;3.27;;;23.90;55.10;;;;;;5063812;27;20543;-68
2022/08/25 01:38:59;;;;;;;3.77;3.47;;;23.90;55.00;;;;;;5065928;28;21018;-69
2022/08/25 01:41:33;;;;;;;3.80;3.50;;;23.90;55.10;;;;;;5056199;28;20457;-70
2022/08/25 01:44:04;;;;;;;3.60;3.30;;;23.90;55.00;;;;;;5067254;28;20456;-69
2022/08/25 01:46:31;;;;;;;4.13;3.73;;;23.90;55.10;;;;;;5082038;27;21015;-70
2022/08/25 01:48:58;;;;;;;3.47;3.17;;;23.90;55.10;;;;;;5067194;28;20461;-69
2022/08/25 01:51:27;;;;;;;3.97;3.63;;;23.90;55.20;;;;;;5063932;28;20481;-69
2022/08/25 01:53:53;;;;;;;3.80;3.50;;;23.90;55.20;;;;;;5064599;28;20450;-69
2022/08/25 01:56:18;;;;;;;3.67;3.40;;;23.80;55.00;;;;;;5067400;28;20459;-69
2022/08/25 01:58:47;;;;;;;4.53;3.30;;;23.80;55.00;;;;;;5068608;28;20640;-69
2022/08/25 02:01:16;;;;;;;3.43;3.13;;;23.80;55.00;;;;;;5056583;28;20651;-69
2022/08/25 02:03:44;;;;;;;3.70;3.40;;;23.80;55.10;;;;;;5070683;28;20457;-69
2022/08/25 02:06:12;;;;;;;4.43;3.30;;;23.80;55.10;;;;;;5061571;28;20457;-69
2022/08/25 02:08:38;;;;;;;3.60;3.30;;;23.70;55.10;;;;;;5043694;27;20470;-68
2022/08/25 02:11:04;;;;;;;3.90;3.60;;;23.70;55.10;;;;;;5055632;28;20453;-69
2022/08/25 02:13:30;;;;;;;5.40;4.00;;;23.70;55.10;;;;;;5085849;27;20823;-69
2022/08/25 02:15:57;;;;;;;3.90;3.60;;;23.70;55.40;;;;;;5054160;28;20282;-69
2022/08/25 02:18:24;;;;;;;4.03;3.73;;;23.60;55.00;;;;;;5078334;28;20685;-70
2022/08/25 02:20:50;;;;;;;3.70;3.40;;;23.60;55.10;;;;;;5066669;28;20458;-70
2022/08/25 02:23:15;;;;;;;3.27;3.07;;;23.60;55.10;;;;;;5069215;28;20956;-69
2022/08/25 02:25:42;;;;;;;3.57;3.27;;;23.60;55.30;;;;;;5064939;27;20219;-69
2022/08/25 02:28:08;;;;;;;4.07;3.77;;;23.60;55.20;;;;;;5067603;28;20213;-69
2022/08/25 02:30:39;;;;;;;3.83;3.27;;;23.50;55.20;;;;;;5070546;27;20461;-69
2022/08/25 02:33:05;;;;;;;4.33;3.93;;;23.50;55.70;;;;;;5070542;28;20998;-70
2022/08/25 02:35:31;;;;;;;3.93;3.63;;;23.50;55.30;;;;;;5084585;27;20470;-69
2022/08/25 02:37:56;;;;;;;4.20;3.80;;;23.50;55.40;;;;;;5082508;28;20590;-69
2022/08/25 02:40:22;;;;;;;6.70;4.20;;;23.40;56.00;;;;;;5065529;28;20240;-69
2022/08/25 02:42:48;;;;;;;4.13;3.73;;;23.40;55.50;;;;;;5075085;28;20210;-69
2022/08/25 02:45:15;;;;;;;3.90;3.60;;;23.40;55.70;;;;;;5070233;28;20218;-69
2022/08/25 02:47:41;;;;;;;6.30;3.57;;;23.30;55.60;;;;;;5073272;28;20976;-69
2022/08/25 02:50:07;;;;;;;3.97;3.67;;;23.30;55.60;;;;;;5070271;28;20453;-69
2022/08/25 02:52:34;;;;;;;4.20;3.80;;;23.30;55.90;;;;;;5072275;28;20211;-69
2022/08/25 02:55:03;;;;;;;3.80;3.60;;;23.30;55.90;;;;;;5069904;28;20482;-68
2022/08/25 02:57:29;;;;;;;3.53;3.33;;;23.30;55.80;;;;;;5070034;28;20561;-70
2022/08/25 02:59:56;;;;;;;4.23;3.83;;;23.30;55.90;;;;;;5083945;28;20446;-69
2022/08/25 03:02:23;;;;;;;3.70;3.47;;;23.20;55.90;;;;;;5068755;28;20457;-68
2022/08/25 03:04:50;;;;;;;3.93;3.53;;;23.20;56.00;;;;;;5071001;28;20860;-69
2022/08/25 03:07:17;;;;;;;4.53;4.13;;;23.20;56.10;;;;;;5086296;27;20457;-69
2022/08/25 03:09:44;;;;;;;4.03;3.73;;;23.20;56.20;;;;;;5072555;28;20812;-69
2022/08/25 03:12:10;;;;;;;4.57;4.07;;;23.10;56.20;;;;;;5075157;28;20539;-69
2022/08/25 03:14:37;;;;;;;4.00;3.50;;;23.10;56.20;;;;;;5070028;28;20464;-69
2022/08/25 03:17:04;;;;;;;5.00;3.60;;;23.10;56.30;;;;;;5069809;28;20502;-69
2022/08/25 03:19:30;;;;;;;4.60;4.20;;;23.10;56.30;;;;;;5083464;28;20452;-69
2022/08/25 03:21:56;;;;;;;3.50;3.30;;;23.10;56.30;;;;;;5050991;28;20444;-69
2022/08/25 03:24:26;;;;;;;4.40;4.10;;;23.00;56.20;;;;;;5074423;28;20678;-69
2022/08/25 03:26:52;;;;;;;3.90;3.60;;;23.10;56.40;;;;;;5069361;28;20302;-69
2022/08/25 03:29:19;;;;;;;4.47;4.17;;;23.00;56.40;;;;;;5068045;28;20502;-70
2022/08/25 03:31:45;;;;;;;4.80;4.23;;;23.00;56.50;;;;;;5067423;28;20456;-69
2022/08/25 03:34:15;;;;;;;4.60;4.20;;;23.00;56.70;;;;;;5068581;28;20449;-69
2022/08/25 03:36:41;;;;;;;5.10;4.70;;;23.00;56.70;;;;;;5071867;28;20214;-70
2022/08/25 03:39:07;;;;;;;4.93;4.40;;;23.00;56.80;;;;;;5070117;28;20472;-68
2022/08/25 03:41:34;;;;;;;4.87;4.37;;;23.00;56.80;;;;;;5065357;28;20477;-69
2022/08/25 03:44:02;;;;;;;4.03;3.73;;;22.90;56.90;;;;;;5053271;28;20515;-68
2022/08/25 03:46:39;;;;;;;4.43;4.00;;;22.90;56.90;;;;;;5053628;28;20466;-70
2022/08/25 03:49:06;;;;;;;5.00;3.80;;;22.90;56.80;;;;;;5071188;28;20544;-69
2022/08/25 03:51:42;;;;;;;4.50;4.10;;;22.90;56.80;;;;;;5068859;28;20464;-69
2022/08/25 03:54:09;;;;;;;4.27;3.87;;;22.80;56.80;;;;;;5082627;28;20470;-69
2022/08/25 03:56:37;;;;;;;5.17;4.00;;;22.90;56.80;;;;;;5088845;27;20481;-69
2022/08/25 03:59:03;;;;;;;5.40;4.90;;;22.80;57.00;;;;;;5067506;28;20465;-69
2022/08/25 04:01:29;;;;;;;4.43;4.07;;;22.80;57.00;;;;;;5086127;27;20473;-69
2022/08/25 04:03:55;;;;;;;4.70;4.30;;;22.80;56.90;;;;;;5072205;28;20456;-69
2022/08/25 04:06:22;;;;;;;5.23;4.30;;;22.70;57.10;;;;;;5068632;28;20229;-69
2022/08/25 04:08:48;;;;;;;4.70;4.20;;;22.70;56.80;;;;;;5074729;27;20224;-69
2022/08/25 04:11:19;;;;;;;4.20;3.80;;;22.70;57.10;;;;;;5074313;28;21048;-69
2022/08/25 04:13:46;;;;;;;7.53;5.50;;;22.70;57.00;;;;;;5068941;28;20449;-67
2022/08/25 04:16:13;;;;;;;5.30;4.60;;;22.70;57.20;;;;;;5093211;28;20586;-68
2022/08/25 04:18:40;;;;;;;4.83;4.33;;;22.60;57.40;;;;;;5068861;28;20488;-68
2022/08/25 04:21:08;;;;;;;4.40;4.00;;;22.60;57.80;;;;;;5066119;28;20530;-67
2022/08/25 04:23:39;;;;;;;4.80;4.23;;;22.60;57.40;;;;;;5066339;28;20461;-69
2022/08/25 04:26:14;;;;;;;5.60;4.00;;;22.60;57.60;;;;;;5062270;28;20474;-68
2022/08/25 04:28:40;;;;;;;4.57;4.07;;;22.50;57.60;;;;;;5058090;28;20452;-69
2022/08/25 04:31:07;;;;;;;4.27;3.90;;;22.50;57.90;;;;;;5068717;28;20438;-69
2022/08/25 04:33:42;;;;;;;8.43;4.40;;;22.50;57.90;;;;;;5074054;27;20452;-67
2022/08/25 04:36:10;;;;;;;5.57;5.00;;;22.50;58.00;;;;;;5060260;28;20452;-70
2022/08/25 04:38:38;;;;;;;4.87;4.37;;;22.50;58.00;;;;;;5080453;27;20469;-69
2022/08/25 04:41:05;;;;;;;4.30;3.90;;;22.40;58.10;;;;;;5086772;28;20489;-69
2022/08/25 04:43:33;;;;;;;5.30;4.70;;;22.50;58.10;;;;;;5083421;28;20461;-68
2022/08/25 04:46:03;;;;;;;5.50;4.27;;;22.50;58.20;;;;;;5066264;28;20488;-69
2022/08/25 04:48:30;;;;;;;6.70;5.00;;;22.40;58.50;;;;;;5070340;28;20980;-69
2022/08/25 04:51:04;;;;;;;4.93;4.53;;;22.40;58.60;;;;;;5074942;27;20459;-69
2022/08/25 04:53:30;;;;;;;4.97;4.30;;;22.40;58.50;;;;;;5040150;28;21034;-69
2022/08/25 04:55:56;;;;;;;5.80;5.17;;;22.40;58.50;;;;;;5069493;27;20528;-68
2022/08/25 04:58:22;;;;;;;8.33;4.30;;;22.30;58.40;;;;;;5054292;28;20470;-69
2022/08/25 05:00:47;;;;;;;7.23;5.17;;;22.40;58.60;;;;;;5074583;28;20222;-69
2022/08/25 05:03:13;;;;;;;5.10;4.60;;;22.40;59.10;;;;;;5072090;28;20242;-69
2022/08/25 05:05:39;;;;;;;6.53;4.40;;;22.30;58.80;;;;;;5069552;27;20268;-70
2022/08/25 05:08:08;;;;;;;5.50;4.70;;;22.30;59.20;;;;;;5064145;28;20562;-68
2022/08/25 05:10:38;;;;;;;5.40;4.40;;;22.30;58.70;;;;;;5067534;28;20249;-70
2022/08/25 05:13:04;;;;;;;5.20;4.70;;;22.30;58.90;;;;;;5054592;28;20465;-69
2022/08/25 05:18:15;;;;;;;7.60;4.60;;;22.20;59.10;;;;;;5062202;28;20215;-69
2022/08/25 05:20:41;;;;;;;4.67;4.27;;;22.30;59.20;;;;;;5068111;28;20449;-69
2022/08/25 05:23:07;;;;;;;5.83;4.40;;;22.30;59.00;;;;;;5060395;28;20488;-69
2022/08/25 05:25:33;;;;;;;6.70;4.83;;;22.20;59.40;;;;;;5051728;28;20230;-69
2022/08/25 05:27:59;;;;;;;5.97;4.93;;;22.20;59.00;;;;;;5062852;28;20734;-69
2022/08/25 05:30:25;;;;;;;5.37;4.77;;;22.30;59.00;;;;;;5063712;28;20484;-69
2022/08/25 05:32:51;;;;;;;6.03;4.17;;;22.20;59.20;;;;;;5058015;28;20298;-69
2022/08/25 05:35:18;;;;;;;7.57;5.20;;;22.30;58.90;;;;;;5064188;28;20887;-69
2022/08/25 05:49:46;;;;;;;4.70;3.87;;;22.30;58.90;;;;;;5018979;28;20622;-69
2022/08/25 05:52:12;;;;;;;7.47;4.37;;;22.30;59.00;;;;;;5031733;28;20461;-69
2022/08/25 05:54:38;;;;;;;4.53;4.13;;;22.30;59.40;;;;;;5072298;28;20469;-69
2022/08/25 05:57:05;;;;;;;8.03;4.10;;;22.30;59.30;;;;;;5062598;28;20207;-69
2022/08/25 05:59:31;;;;;;;6.13;4.43;;;22.30;59.20;;;;;;5045401;28;20457;-69
2022/08/25 06:04:41;;;;;;;5.20;4.70;;;22.40;59.20;;;;;;5062522;28;20473;-69
2022/08/25 06:07:08;;;;;;;5.60;5.00;;;22.40;59.30;;;;;;5063777;28;20460;-69
2022/08/25 06:09:36;;;;;;;5.37;4.60;;;22.40;59.50;;;;;;5061461;28;20218;-70
2022/08/25 06:12:02;;;;;;;6.80;5.30;;;22.40;60.40;;;;;;5061242;28;20871;-69
2022/08/25 06:14:27;;;;;;;5.60;4.83;;;22.40;59.70;;;;;;5070407;28;20496;-69
2022/08/25 06:16:53;;;;;;;5.23;4.73;;;22.40;59.90;;;;;;5046505;28;20445;-69
2022/08/25 06:19:20;;;;;;;5.90;4.43;;;22.50;59.80;;;;;;5057542;28;20214;-68
2022/08/25 06:21:45;;;;;;;9.33;5.07;;;22.50;59.90;;;;;;5059131;28;20223;-69
2022/08/25 06:24:11;;;;;;;8.00;5.00;;;22.50;60.40;;;;;;5068318;28;20476;-69
2022/08/25 06:26:37;;;;;;;5.20;4.77;;;22.60;60.70;;;;;;5060351;28;20297;-69
2022/08/25 06:29:03;;;;;;;5.53;5.03;;;22.60;60.90;;;;;;5056577;28;20306;-69
2022/08/25 06:31:29;;;;;;;6.67;5.40;;;22.60;61.20;;;;;;5061165;28;20249;-69
2022/08/25 06:33:56;;;;;;;6.97;4.70;;;22.70;61.70;;;;;;5048956;28;20457;-69
2022/08/25 06:36:22;;;;;;;5.43;4.93;;;22.80;62.70;;;;;;5058500;28;20219;-69
2022/08/25 06:38:48;;;;;;;5.63;5.00;;;22.80;62.60;;;;;;5063912;28;20513;-69
2022/08/25 06:41:15;;;;;;;6.30;4.90;;;22.90;63.20;;;;;;5058142;28;20266;-69
2022/08/25 06:43:41;;;;;;;5.77;5.10;;;23.00;63.30;;;;;;5042882;28;20742;-69
2022/08/25 06:46:28;;;;;;;7.40;5.30;;;23.00;62.90;;;;;;5060072;28;20813;-69
2022/08/25 06:48:55;;;;;;;5.80;5.30;;;23.00;64.00;;;;;;5034875;28;20992;-69
2022/08/25 06:51:22;;;;;;;5.10;4.60;;;23.10;63.80;;;;;;5041289;28;20476;-69
2022/08/25 06:53:49;;;;;;;5.57;5.00;;;23.20;64.90;;;;;;5051043;28;20462;-69
2022/08/25 06:56:16;;;;;;;5.83;5.33;;;23.30;65.30;;;;;;5056307;28;20468;-69
2022/08/25 06:58:42;;;;;;;5.43;4.93;;;23.30;66.00;;;;;;5050973;28;20465;-69
2022/08/25 07:01:11;;;;;;;6.60;5.50;;;23.50;66.10;;;;;;5058130;28;20537;-69
2022/08/25 07:03:37;;;;;;;7.10;5.53;;;23.50;66.60;;;;;;5058144;28;20225;-69
2022/08/25 07:06:04;;;;;;;6.40;5.80;;;23.60;66.60;;;;;;5041666;28;20473;-69
2022/08/25 07:08:30;;;;;;;6.30;5.70;;;23.60;66.50;;;;;;5042146;28;20227;-69
2022/08/25 07:10:56;;;;;;;6.33;5.43;;;23.70;66.90;;;;;;5047819;28;20464;-69
2022/08/25 07:13:21;;;;;;;6.90;5.67;;;23.80;67.60;;;;;;5055839;28;20465;-69
2022/08/25 07:15:53;;;;;;;10.33;6.40;;;23.90;68.10;;;;;;5062079;28;20463;-69
2022/08/25 07:18:19;;;;;;;7.37;5.00;;;24.00;68.00;;;;;;5065521;28;20227;-68
2022/08/25 07:20:45;;;;;;;7.13;5.73;;;24.10;67.80;;;;;;5064978;28;20461;-68
2022/08/25 07:23:11;;;;;;;7.77;6.00;;;24.10;68.70;;;;;;5059282;28;20473;-69
2022/08/25 07:25:37;;;;;;;9.30;6.40;;;24.20;68.70;;;;;;5061164;28;20466;-69
2022/08/25 07:28:03;;;;;;;7.73;5.27;;;24.30;68.80;;;;;;5068711;28;20207;-69
2022/08/25 07:30:29;;;;;;;6.13;5.53;;;24.40;69.30;;;;;;5050132;28;20227;-69
2022/08/25 07:32:55;;;;;;;5.77;5.20;;;24.40;69.40;;;;;;5069428;28;20504;-69
2022/08/25 07:35:24;;;;;;;7.37;6.00;;;24.50;70.80;;;;;;5072572;28;21001;-69
2022/08/25 07:37:55;;;;;;;6.87;6.17;;;24.60;69.90;;;;;;5062217;28;20219;-69
2022/08/25 07:40:25;;;;;;;7.57;6.00;;;24.80;70.10;;;;;;5074593;28;20536;-69
2022/08/25 07:42:55;;;;;;;7.13;6.43;;;24.80;69.60;;;;;;5056338;28;20805;-69
2022/08/25 07:45:28;;;;;;;8.73;6.97;;;24.90;70.00;;;;;;5062607;28;20466;-70
2022/08/25 07:48:01;;;;;;;8.20;6.60;;;25.00;70.10;;;;;;5063273;28;20980;-69
2022/08/25 07:50:28;;;;;;;6.77;5.77;;;25.10;70.00;;;;;;5062740;28;20461;-69
2022/08/25 07:52:55;;;;;;;6.40;5.80;;;25.20;69.80;;;;;;5064191;28;20469;-69
2022/08/25 07:55:23;;;;;;;7.10;6.40;;;25.20;70.10;;;;;;5054846;28;20469;-69
2022/08/25 07:57:49;;;;;;;9.50;7.90;;;25.30;70.20;;;;;;5061822;28;20490;-70
2022/08/25 08:00:15;;;;;;;7.13;6.43;;;25.40;70.40;;;;;;5045848;27;20467;-70
2022/08/25 08:02:42;;;;;;;6.73;6.00;;;25.50;70.00;;;;;;5056134;28;20985;-69
2022/08/25 08:05:09;;;;;;;7.40;6.70;;;25.60;70.10;;;;;;5057197;28;20462;-69
2022/08/25 08:07:34;;;;;;;6.87;5.97;;;25.60;70.10;;;;;;5045857;28;20473;-69
2022/08/25 08:10:00;;;;;;;6.70;6.00;;;25.70;70.30;;;;;;5060869;28;20509;-69
2022/08/25 08:12:27;;;;;;;7.13;6.43;;;25.80;70.10;;;;;;5070576;28;20553;-69
2022/08/25 08:14:54;;;;;;;8.20;6.30;;;25.80;70.40;;;;;;5060180;28;20228;-69
2022/08/25 08:17:21;;;;;;;7.60;6.90;;;26.00;71.10;;;;;;5061310;28;20527;-70
2022/08/25 08:19:47;;;;;;;7.40;6.30;;;26.10;70.10;;;;;;5062354;28;20500;-69
2022/08/25 08:22:16;;;;;;;6.90;6.30;;;26.10;69.80;;;;;;5064029;28;21043;-69
2022/08/25 08:24:44;;;;;;;7.63;6.83;;;26.20;70.10;;;;;;5060722;28;20579;-69
2022/08/25 08:27:11;;;;;;;10.83;6.87;;;26.30;70.10;;;;;;5045659;28;20833;-70
2022/08/25 08:29:40;;;;;;;5.87;5.30;;;26.30;69.80;;;;;;5054600;28;20444;-69
2022/08/25 08:32:09;;;;;;;8.00;7.10;;;26.40;69.80;;;;;;5071804;28;20951;-70
2022/08/25 08:34:35;;;;;;;9.00;6.80;;;26.50;69.70;;;;;;5047758;28;20476;-70
2022/08/25 08:37:02;;;;;;;6.83;6.20;;;26.60;70.00;;;;;;5061501;28;20456;-70
2022/08/25 08:39:29;;;;;;;7.53;6.93;;;26.70;69.70;;;;;;5052834;28;20462;-69
2022/08/25 08:42:18;;;;;;;7.60;6.90;;;26.70;69.40;;;;;;5057646;28;20544;-70
2022/08/25 08:44:43;;;;;;;7.40;6.70;;;26.80;69.50;;;;;;5058508;28;20920;-70
2022/08/25 08:47:45;;;;;;;6.73;6.23;;;26.90;69.50;;;;;;5056559;28;20505;-70
2022/08/25 08:50:33;;;;;;;7.83;6.47;;;27.00;69.50;;;;;;5041854;28;20214;-69
2022/08/25 08:53:01;;;;;;;7.50;6.83;;;27.20;69.10;;;;;;5058896;28;20453;-70
2022/08/25 08:55:33;;;;;;;8.00;7.30;;;27.30;68.80;;;;;;5060974;28;20543;-70
2022/08/25 08:58:03;;;;;;;6.77;6.17;;;27.40;68.90;;;;;;5060294;28;20883;-70
2022/08/25 09:00:32;;;;;;;7.93;7.13;;;27.50;68.30;;;;;;5041453;28;21059;-69
2022/08/25 09:03:15;;;;;;;7.17;6.23;;;27.50;68.20;;;;;;5061862;28;20474;-69
2022/08/25 09:05:54;;;;;;;7.00;6.30;;;27.60;67.90;;;;;;5060886;28;20229;-70
2022/08/25 09:08:20;;;;;;;7.07;6.47;;;27.70;67.30;;;;;;5055488;28;20507;-69
2022/08/25 09:11:09;;;;;;;6.93;6.25;;;27.70;66.70;;;;;;5074555;28;20231;-70
2022/08/25 09:13:51;;;;;;;8.63;7.20;;;27.80;66.70;;;;;;5037590;28;20226;-69
2022/08/25 09:16:55;;;;;;;6.72;6.13;;;27.80;66.40;;;;;;5057725;28;20229;-69
2022/08/25 09:19:36;;;;;;;7.70;6.30;;;27.80;66.10;;;;;;5000779;28;20235;-68
2022/08/25 09:22:29;;;;;;;6.30;5.70;;;28.00;66.00;;;;;;5057346;28;20228;-69
2022/08/25 09:25:22;;;;;;;6.95;6.25;;;28.10;65.60;;;;;;5056379;28;20600;-70
2022/08/25 09:28:03;;;;;;;7.00;5.70;;;28.20;65.40;;;;;;5062376;28;20236;-70
2022/08/25 09:30:43;;;;;;;6.93;5.80;;;28.50;64.60;;;;;;5073238;28;20252;-69
2022/08/25 09:33:14;;;;;;;6.55;5.93;;;28.70;64.00;;;;;;5067357;28;20213;-70
2022/08/25 09:35:40;;;;;;;6.22;5.18;;;28.60;62.90;;;;;;5044854;28;20217;-70
2022/08/25 09:38:12;;;;;;;7.28;5.72;;;28.60;64.10;;;;;;5060508;28;20241;-70
2022/08/25 09:40:48;;;;;;;7.38;6.55;;;28.70;63.20;;;;;;5051586;28;20625;-70
2022/08/25 09:43:26;;;;;;;6.60;6.00;;;28.80;62.70;;;;;;5048520;28;20228;-70
2022/08/25 09:46:06;;;;;;;6.72;6.10;;;29.00;62.70;;;;;;5038376;28;20272;-70
2022/08/25 09:48:45;;;;;;;5.38;4.97;;;29.10;61.90;;;;;;5056111;28;20234;-69
2022/08/25 09:51:22;;;;;;;7.43;6.65;;;29.10;61.40;;;;;;5053585;28;20225;-70
2022/08/25 09:54:19;;;;;;;6.68;5.97;;;29.10;61.10;;;;;;5060788;28;20226;-70
2022/08/25 09:56:49;;;;;;;5.68;5.18;;;29.00;60.20;;;;;;5037192;28;20220;-70
2022/08/25 09:59:26;;;;;;;5.95;5.47;;;29.00;59.80;;;;;;5034175;28;20656;-70
2022/08/25 10:01:54;;;;;;;5.80;5.25;;;29.00;59.70;;;;;;5055709;28;20228;-70
2022/08/25 10:04:32;;;;;;;5.85;5.30;;;29.20;59.80;;;;;;5063367;28;20256;-70
2022/08/25 10:07:01;;;;;;;6.88;6.18;;;29.30;59.70;;;;;;5058744;28;20231;-70
2022/08/25 10:09:33;;;;;;;6.53;5.93;;;29.30;59.30;;;;;;5035976;28;20799;-70
2022/08/25 10:12:13;;;;;;;6.15;5.63;;;29.30;59.50;;;;;;5063923;28;20236;-69
2022/08/25 10:14:39;;;;;;;7.30;6.30;;;29.40;59.60;;;;;;5047338;28;20260;-70
2022/08/25 10:17:28;;;;;;;6.63;6.07;;;29.50;59.60;;;;;;5061659;28;20638;-70
2022/08/25 10:20:09;;;;;;;8.77;8.07;;;29.50;59.20;;;;;;5059935;28;20231;-69
2022/08/25 10:22:37;;;;;;;5.85;5.35;;;29.60;59.50;;;;;;5061293;28;20232;-70
2022/08/25 10:25:06;;;;;;;7.13;5.57;;;29.70;59.50;;;;;;5064812;28;20671;-70
2022/08/25 10:27:43;;;;;;;7.00;6.30;;;29.80;59.50;;;;;;5079584;28;20216;-70
2022/08/25 10:30:22;;;;;;;6.10;5.57;;;29.90;59.10;;;;;;5055404;28;20219;-70
2022/08/25 10:33:05;;;;;;;6.57;5.88;;;29.90;58.90;;;;;;5052178;28;20622;-70
2022/08/25 10:36:02;;;;;;;4.72;4.38;;;30.00;58.00;;;;;;5065167;28;20227;-70
2022/08/25 10:38:37;;;;;;;5.03;4.63;;;30.20;57.80;;;;;;5060343;28;20705;-70
2022/08/25 10:41:15;;;;;;;6.03;4.22;;;30.30;57.50;;;;;;5054721;28;20721;-70
2022/08/25 10:44:01;;;;;;;5.85;5.45;;;30.50;57.60;;;;;;5062903;28;20293;-70
2022/08/25 10:46:49;;;;;;;5.57;5.07;;;30.50;57.80;;;;;;5038495;28;20260;-70
2022/08/25 10:49:22;;;;;;;6.30;5.30;;;30.50;57.50;;;;;;5045840;28;20238;-70
2022/08/25 10:52:02;;;;;;;6.13;5.22;;;30.40;57.40;;;;;;5049288;28;20808;-70
2022/08/25 10:54:58;;;;;;;7.60;4.55;;;30.40;57.00;;;;;;5060550;28;20211;-70
2022/08/25 10:57:41;;;;;;;4.53;4.13;;;30.70;56.80;;;;;;5080341;28;20227;-70
2022/08/25 11:00:22;;;;;;;4.18;3.88;;;30.90;56.40;;;;;;5068214;28;20659;-70
2022/08/25 11:03:00;;;;;;;4.70;4.30;;;30.90;55.90;;;;;;5063860;28;20219;-70
2022/08/25 11:05:29;;;;;;;5.40;4.90;;;31.10;56.10;;;;;;5053010;28;20215;-70
2022/08/25 11:08:06;;;;;;;5.38;4.88;;;31.10;56.30;;;;;;5067003;28;20220;-70
2022/08/25 11:10:41;;;;;;;5.95;5.20;;;31.10;56.40;;;;;;5067198;28;20673;-70
2022/08/25 11:13:14;;;;;;;5.93;5.43;;;31.30;55.90;;;;;;5083162;28;20681;-70
2022/08/25 11:16:14;;;;;;;4.88;4.43;;;31.30;56.20;;;;;;5048426;28;20676;-70
2022/08/25 11:18:53;;;;;;;6.30;5.70;;;31.50;56.50;;;;;;5048794;28;20243;-70
2022/08/25 11:21:26;;;;;;;7.30;4.63;;;31.60;56.20;;;;;;5062451;28;20219;-70
2022/08/25 11:24:05;;;;;;;5.60;5.20;;;31.50;56.30;;;;;;5064022;28;20831;-70
2022/08/25 11:26:35;;;;;;;5.85;5.35;;;31.50;56.10;;;;;;5053797;28;20219;-70
2022/08/25 11:29:11;;;;;;;5.63;5.22;;;31.50;55.70;;;;;;5059018;28;20417;-70
2022/08/25 11:31:42;;;;;;;5.78;5.28;;;31.60;55.50;;;;;;5042317;28;20742;-70
2022/08/25 11:34:10;;;;;;;4.93;4.53;;;31.60;55.50;;;;;;5064184;28;20223;-70
2022/08/25 11:36:41;;;;;;;5.55;5.10;;;31.60;55.70;;;;;;5044435;28;20226;-69
2022/08/25 11:39:16;;;;;;;6.10;5.60;;;31.60;55.80;;;;;;5042981;28;20260;-70
2022/08/25 11:41:57;;;;;;;5.72;5.22;;;31.80;55.50;;;;;;5061784;28;20242;-70
2022/08/25 11:44:41;;;;;;;5.80;4.70;;;32.20;55.40;;;;;;5051825;28;20228;-70
2022/08/25 11:47:25;;;;;;;5.78;5.25;;;32.20;55.40;;;;;;5060629;28;20296;-70
2022/08/25 11:50:05;;;;;;;5.30;4.80;;;32.30;55.50;;;;;;5073330;28;20687;-70
2022/08/25 11:52:30;;;;;;;4.35;4.03;;;32.40;55.20;;;;;;5045259;28;20219;-70
2022/08/25 11:55:11;;;;;;;5.10;4.60;;;32.50;54.90;;;;;;5062258;28;20206;-70
2022/08/25 11:57:37;;;;;;;4.60;4.20;;;32.50;54.30;;;;;;5060083;28;20762;-70
2022/08/25 12:00:13;;;;;;;4.65;4.22;;;32.40;54.20;;;;;;5061052;28;20226;-70
2022/08/25 12:02:39;;;;;;;4.80;4.32;;;32.40;54.20;;;;;;5060714;28;20222;-70
2022/08/25 12:05:09;;;;;;;6.25;5.65;;;32.50;54.00;;;;;;5059073;28;20226;-70
2022/08/25 12:10:53;;;;;;;5.95;5.45;;;32.70;54.60;;;;;;5074920;28;20226;-70
2022/08/25 12:13:41;;;;;;;4.88;4.47;;;32.70;54.80;;;;;;5070119;28;20302;-70
2022/08/25 12:16:36;;;;;;;5.32;4.82;;;32.70;54.60;;;;;;5076259;27;20223;-70
2022/08/25 12:19:35;;;;;;;5.95;4.47;;;32.50;54.30;;;;;;5047137;28;20230;-70
2022/08/25 12:22:00;;;;;;;5.60;5.10;;;32.30;54.40;;;;;;5060740;28;20243;-70
2022/08/25 12:24:41;;;;;;;5.90;5.40;;;32.40;54.50;;;;;;5045819;28;20250;-70
2022/08/25 12:28:05;;;;;;;5.60;5.10;;;32.30;54.30;;;;;;5073440;28;20210;-70
2022/08/25 12:30:42;;;;;;;5.38;4.88;;;32.40;54.40;;;;;;5006358;28;20699;-70
2022/08/25 12:33:08;;;;;;;5.25;4.85;;;32.50;54.30;;;;;;5023994;28;20211;-70
2022/08/25 12:35:57;;;;;;;6.18;5.63;;;32.50;54.20;;;;;;5030926;28;20230;-69
2022/08/25 12:38:40;;;;;;;5.95;5.43;;;32.50;54.30;;;;;;5072975;28;20702;-70
2022/08/25 12:41:21;;;;;;;5.82;5.32;;;32.70;54.60;;;;;;5072149;28;20254;-71
2022/08/25 12:43:50;;;;;;;5.70;5.03;;;32.60;54.50;;;;;;5054194;28;20210;-71
2022/08/25 12:46:22;;;;;;;5.63;5.18;;;32.60;54.80;;;;;;5071940;28;20273;-70
2022/08/25 12:49:27;;;;;;;8.05;6.07;;;32.60;54.60;;;;;;5056652;28;20258;-71
2022/08/25 12:52:25;;;;;;;6.00;5.50;;;32.60;54.50;;;;;;5055513;28;20222;-71
2022/08/25 12:54:58;;;;;;;5.90;5.00;;;32.40;54.20;;;;;;5019280;28;20313;-71
2022/08/25 12:57:44;;;;;;;6.00;5.40;;;32.40;54.30;;;;;;5041968;28;20219;-71
2022/08/25 13:00:22;;;;;;;5.72;5.00;;;32.40;54.20;;;;;;5068004;27;20215;-70
2022/08/25 13:03:04;;;;;;;4.88;4.50;;;32.40;53.80;;;;;;5043811;28;20214;-70
2022/08/25 13:05:48;;;;;;;5.13;4.72;;;32.50;54.00;;;;;;5063222;28;20694;-71
2022/08/25 13:08:36;;;;;;;5.57;5.07;;;32.60;54.00;;;;;;5064280;28;20214;-70
2022/08/25 13:11:19;;;;;;;5.03;4.57;;;32.90;54.20;;;;;;5072764;28;20231;-70
2022/08/25 13:14:00;;;;;;;6.07;5.25;;;33.20;54.00;;;;;;5038607;28;20303;-70
2022/08/25 13:16:28;;;;;;;5.65;5.22;;;33.10;53.90;;;;;;5058501;28;20588;-71
2022/08/25 13:18:57;;;;;;;5.60;5.10;;;33.00;53.90;;;;;;5081451;28;20218;-71
2022/08/25 13:21:27;;;;;;;4.95;4.55;;;33.00;53.90;;;;;;5074008;28;20679;-71
2022/08/25 13:23:56;;;;;;;5.57;5.07;;;33.10;53.70;;;;;;5063635;28;20226;-71
2022/08/25 13:26:31;;;;;;;5.32;4.82;;;33.00;54.00;;;;;;5061868;28;20299;-70
2022/08/25 13:29:12;;;;;;;4.93;4.53;;;33.10;53.80;;;;;;5060716;28;20318;-70
2022/08/25 13:31:56;;;;;;;5.25;4.80;;;33.20;54.00;;;;;;5059023;28;20252;-71
2022/08/25 13:34:29;;;;;;;5.53;5.03;;;33.20;53.70;;;;;;5062853;28;20305;-71